Time;durP1;ratioP1;P1;durP2;ratioP2;P2;SDS_P1;SDS_P2;PMS_P1;PMS_P2;Temp;Humidity;BMP_temperature;BMP_pressure;BME280_temperature;BME280_humidity;BME280_pressure;Samples;Min_cycle;Max_cycle;Signal;HPM_P1;HPM_P2
2020/12/04 00:00:21;;;;;;;12.10;7.65;;;3.80;99.90;;;;;;5053096;28;20039;-77
2020/12/04 00:02:46;;;;;;;13.43;8.48;;;3.80;99.90;;;;;;5058832;28;20032;-77
2020/12/04 00:05:12;;;;;;;15.05;9.73;;;3.70;99.90;;;;;;5057941;28;20072;-77
2020/12/04 00:07:38;;;;;;;17.42;9.93;;;3.80;99.90;;;;;;5068304;28;20021;-76
2020/12/04 00:10:04;;;;;;;17.70;10.60;;;3.80;99.90;;;;;;5063157;28;20032;-77
2020/12/04 00:12:30;;;;;;;16.33;10.00;;;3.80;99.90;;;;;;5057339;28;20360;-77
2020/12/04 00:14:55;;;;;;;17.63;10.45;;;3.60;99.90;;;;;;5058147;28;20058;-77
2020/12/04 00:17:21;;;;;;;26.77;13.95;;;3.50;99.90;;;;;;5061205;28;20036;-77
2020/12/04 00:19:47;;;;;;;14.82;8.30;;;3.40;99.90;;;;;;5060809;28;20037;-77
2020/12/04 00:22:12;;;;;;;11.32;6.35;;;3.40;99.90;;;;;;5059794;28;20064;-77
2020/12/04 00:24:38;;;;;;;12.23;6.88;;;3.20;99.90;;;;;;5061726;28;20028;-77
2020/12/04 00:27:04;;;;;;;10.02;6.20;;;3.10;99.90;;;;;;5064653;28;20064;-77
2020/12/04 00:29:30;;;;;;;13.40;7.10;;;3.00;99.90;;;;;;5069626;28;20021;-77
2020/12/04 00:31:56;;;;;;;11.95;6.95;;;3.00;99.90;;;;;;5068630;28;20017;-77
2020/12/04 00:34:23;;;;;;;12.30;7.75;;;3.00;99.90;;;;;;5063925;28;20529;-77
2020/12/04 00:36:50;;;;;;;13.10;6.78;;;3.00;99.90;;;;;;5061354;28;20032;-77
2020/12/04 00:39:16;;;;;;;12.20;6.45;;;3.00;99.90;;;;;;5064096;28;20068;-77
2020/12/04 00:41:42;;;;;;;9.65;5.95;;;3.10;99.90;;;;;;5064770;28;20024;-77
2020/12/04 00:44:08;;;;;;;12.05;6.57;;;3.00;99.90;;;;;;5070240;28;20024;-77
2020/12/04 00:46:34;;;;;;;13.38;7.22;;;3.20;99.90;;;;;;5059994;28;20021;-77
2020/12/04 00:49:00;;;;;;;15.30;8.65;;;3.20;99.90;;;;;;5062057;28;20426;-77
2020/12/04 00:51:35;;;;;;;13.82;7.85;;;3.30;99.90;;;;;;5061938;28;20025;-76
2020/12/04 00:54:01;;;;;;;14.68;9.18;;;3.10;99.90;;;;;;5062884;28;20040;-76
2020/12/04 00:56:32;;;;;;;11.90;6.93;;;3.20;99.90;;;;;;5062881;28;20086;-77
2020/12/04 00:58:57;;;;;;;12.90;7.45;;;3.10;99.90;;;;;;5061499;28;20037;-77
2020/12/04 01:01:23;;;;;;;11.35;6.75;;;3.00;99.90;;;;;;5062830;28;20482;-76
2020/12/04 01:03:49;;;;;;;12.07;7.10;;;2.80;99.90;;;;;;5067565;28;20032;-77
2020/12/04 01:06:15;;;;;;;16.73;9.57;;;2.80;99.90;;;;;;5062522;28;20024;-77
2020/12/04 01:08:42;;;;;;;14.90;8.38;;;2.90;99.90;;;;;;5062663;28;20029;-77
2020/12/04 01:11:08;;;;;;;13.05;6.47;;;3.10;99.90;;;;;;5062260;28;20032;-77
2020/12/04 01:13:34;;;;;;;13.43;7.40;;;3.10;99.90;;;;;;5063413;28;20028;-77
2020/12/04 01:15:59;;;;;;;14.77;8.15;;;3.00;99.90;;;;;;5063458;28;20382;-77
2020/12/04 01:18:25;;;;;;;11.48;7.13;;;2.80;99.90;;;;;;5063140;28;20543;-76
2020/12/04 01:20:51;;;;;;;14.93;8.25;;;2.80;99.90;;;;;;5062943;28;20489;-77
2020/12/04 01:23:17;;;;;;;13.88;7.60;;;2.70;99.90;;;;;;5062301;28;20068;-78
2020/12/04 01:25:42;;;;;;;13.93;8.27;;;2.80;99.90;;;;;;5068867;28;20028;-77
2020/12/04 01:28:08;;;;;;;14.07;8.07;;;2.70;99.90;;;;;;5067849;28;20154;-77
2020/12/04 01:30:34;;;;;;;14.52;8.32;;;2.70;99.90;;;;;;5064631;28;20021;-77
2020/12/04 01:32:59;;;;;;;16.45;8.70;;;2.90;99.90;;;;;;5061050;28;20025;-76
2020/12/04 01:35:25;;;;;;;14.02;7.65;;;2.90;99.90;;;;;;5059768;28;20071;-77
2020/12/04 01:37:51;;;;;;;16.17;7.78;;;2.90;99.90;;;;;;5060242;28;20029;-77
2020/12/04 01:40:21;;;;;;;13.65;8.00;;;3.00;99.90;;;;;;5064675;28;20054;-77
2020/12/04 01:42:47;;;;;;;13.52;8.18;;;3.10;99.90;;;;;;5064642;28;20074;-77
2020/12/04 01:45:13;;;;;;;14.65;8.60;;;3.10;99.90;;;;;;5061858;28;20031;-77
2020/12/04 01:47:39;;;;;;;18.75;10.52;;;3.10;99.90;;;;;;5058834;28;20021;-77
2020/12/04 01:50:05;;;;;;;16.17;10.10;;;3.20;99.90;;;;;;5058495;28;20036;-77
2020/12/04 01:52:31;;;;;;;15.98;9.95;;;3.30;99.90;;;;;;5059275;28;20024;-77
2020/12/04 01:54:57;;;;;;;15.27;8.82;;;3.30;99.90;;;;;;5061031;28;20024;-77
2020/12/04 01:57:27;;;;;;;15.23;8.65;;;3.20;99.90;;;;;;5063231;28;20045;-77
2020/12/04 01:59:53;;;;;;;16.35;9.30;;;3.30;99.90;;;;;;5062482;28;20042;-77
2020/12/04 02:02:20;;;;;;;14.57;8.82;;;3.40;99.90;;;;;;5061068;28;20107;-77
2020/12/04 02:04:47;;;;;;;15.80;9.40;;;3.30;99.90;;;;;;5060456;28;20028;-77
2020/12/04 02:07:45;;;;;;;16.58;9.68;;;3.20;99.90;;;;;;5063451;28;20035;-79
2020/12/04 02:10:18;;;;;;;17.65;10.38;;;3.40;99.90;;;;;;5043178;28;20078;-77
2020/12/04 02:12:46;;;;;;;18.83;10.38;;;3.40;99.90;;;;;;5066569;28;20028;-77
2020/12/04 02:15:12;;;;;;;20.63;12.13;;;3.40;99.90;;;;;;5062893;28;20063;-77
2020/12/04 02:17:38;;;;;;;16.40;9.52;;;3.40;99.90;;;;;;5064007;28;20427;-77
2020/12/04 02:20:05;;;;;;;14.73;8.98;;;3.40;99.90;;;;;;5056603;28;20035;-76
2020/12/04 02:22:38;;;;;;;20.60;10.20;;;3.40;99.90;;;;;;5058015;28;20025;-77
2020/12/04 02:25:09;;;;;;;11.85;7.97;;;3.40;99.90;;;;;;5062905;28;20103;-77
2020/12/04 02:27:55;;;;;;;15.00;8.23;;;3.30;99.90;;;;;;5063398;28;20025;-77
2020/12/04 02:30:29;;;;;;;15.27;8.77;;;3.40;99.90;;;;;;5060544;28;20040;-77
2020/12/04 02:32:55;;;;;;;14.43;8.87;;;3.40;99.90;;;;;;5063570;28;20033;-77
2020/12/04 02:35:21;;;;;;;19.10;9.38;;;3.40;99.90;;;;;;5062915;28;20063;-77
2020/12/04 02:37:46;;;;;;;16.35;10.43;;;3.40;99.90;;;;;;5059713;28;20048;-77
2020/12/04 02:40:12;;;;;;;20.50;10.18;;;3.40;99.90;;;;;;5061011;28;20041;-77
2020/12/04 02:42:41;;;;;;;15.43;9.93;;;3.40;99.90;;;;;;5061332;28;20075;-77
2020/12/04 02:45:08;;;;;;;18.33;9.63;;;3.30;99.90;;;;;;5062817;28;20037;-77
2020/12/04 02:47:33;;;;;;;16.92;10.52;;;3.40;99.90;;;;;;5061899;28;20032;-77
2020/12/04 02:49:59;;;;;;;19.77;10.40;;;3.40;99.90;;;;;;5058363;28;20078;-77
2020/12/04 02:52:25;;;;;;;15.50;9.77;;;3.40;99.90;;;;;;5062815;28;20617;-77
2020/12/04 02:54:51;;;;;;;15.73;10.20;;;3.40;99.90;;;;;;5064942;28;20063;-77
2020/12/04 02:57:17;;;;;;;21.52;11.10;;;3.50;99.90;;;;;;5060827;28;20439;-77
2020/12/04 02:59:44;;;;;;;17.45;9.95;;;3.50;99.90;;;;;;5061010;28;20083;-77
2020/12/04 03:02:10;;;;;;;23.15;13.05;;;3.50;99.90;;;;;;5061805;28;20095;-77
2020/12/04 03:04:36;;;;;;;23.90;12.88;;;3.50;99.90;;;;;;5059568;28;20028;-77
2020/12/04 03:07:03;;;;;;;19.00;12.32;;;3.50;99.90;;;;;;5062219;28;20059;-77
2020/12/04 03:09:29;;;;;;;21.65;12.52;;;3.50;99.90;;;;;;5058587;28;20032;-77
2020/12/04 03:11:56;;;;;;;18.65;11.45;;;3.50;99.90;;;;;;5059506;28;20032;-77
2020/12/04 03:14:21;;;;;;;17.38;11.45;;;3.50;99.90;;;;;;5061735;28;20044;-77
2020/12/04 03:16:47;;;;;;;21.23;11.32;;;3.50;99.90;;;;;;5063299;28;20479;-77
2020/12/04 03:19:13;;;;;;;19.50;12.20;;;3.50;99.90;;;;;;5064638;28;20094;-78
2020/12/04 03:21:38;;;;;;;18.08;11.07;;;3.50;99.90;;;;;;5063018;28;20518;-77
2020/12/04 03:24:04;;;;;;;16.85;10.27;;;3.40;99.90;;;;;;5061155;28;20229;-77
2020/12/04 03:26:30;;;;;;;17.85;9.90;;;3.30;99.90;;;;;;5060848;28;20021;-77
2020/12/04 03:28:56;;;;;;;20.45;12.23;;;3.30;99.90;;;;;;5062568;28;20029;-77
2020/12/04 03:31:21;;;;;;;22.70;12.32;;;3.40;99.90;;;;;;5060521;28;20598;-77
2020/12/04 03:33:47;;;;;;;21.20;12.57;;;3.30;99.90;;;;;;5054923;28;20021;-77
2020/12/04 03:36:13;;;;;;;20.48;12.55;;;3.40;99.90;;;;;;5060776;28;20047;-77
2020/12/04 03:38:39;;;;;;;20.25;11.25;;;3.40;99.90;;;;;;5054353;28;20025;-77
2020/12/04 03:41:04;;;;;;;18.52;10.45;;;3.50;99.90;;;;;;5064955;28;20037;-76
2020/12/04 03:43:30;;;;;;;21.98;12.15;;;3.40;99.90;;;;;;5054920;28;20032;-76
2020/12/04 03:45:55;;;;;;;16.83;10.32;;;3.40;99.90;;;;;;5054563;28;20087;-77
2020/12/04 03:48:21;;;;;;;18.38;11.07;;;3.40;99.90;;;;;;5057621;28;20024;-77
2020/12/04 03:50:47;;;;;;;18.65;11.52;;;3.40;99.90;;;;;;5056169;28;20387;-77
2020/12/04 03:53:12;;;;;;;20.85;11.73;;;3.40;99.90;;;;;;5061340;28;20107;-76
2020/12/04 03:55:38;;;;;;;19.42;11.57;;;3.30;99.90;;;;;;5060126;28;20074;-77
2020/12/04 03:58:05;;;;;;;24.65;14.30;;;3.30;99.90;;;;;;5058587;28;20480;-77
2020/12/04 04:00:31;;;;;;;23.00;13.93;;;3.30;99.90;;;;;;5065318;28;20032;-78
2020/12/04 04:02:56;;;;;;;23.60;14.00;;;3.30;99.90;;;;;;5061447;28;20347;-78
2020/12/04 04:05:22;;;;;;;22.52;12.85;;;3.30;99.90;;;;;;5057888;28;20420;-78
2020/12/04 04:07:51;;;;;;;23.30;12.25;;;3.30;99.90;;;;;;5058101;28;20028;-78
2020/12/04 04:10:17;;;;;;;22.05;13.48;;;3.20;99.90;;;;;;5058367;28;20025;-78
2020/12/04 04:12:43;;;;;;;21.42;13.48;;;3.20;99.90;;;;;;5061826;28;20032;-77
2020/12/04 04:15:09;;;;;;;24.40;15.40;;;3.20;99.90;;;;;;5057485;28;20020;-78
2020/12/04 04:17:35;;;;;;;23.55;13.48;;;3.20;99.90;;;;;;5056363;28;20522;-77
2020/12/04 04:20:00;;;;;;;22.58;14.25;;;3.10;99.90;;;;;;5063939;28;20037;-77
2020/12/04 04:22:26;;;;;;;22.77;13.70;;;3.20;99.90;;;;;;5057819;28;20040;-77
2020/12/04 04:24:52;;;;;;;25.60;14.98;;;3.20;99.90;;;;;;5066296;28;20502;-78
2020/12/04 04:27:17;;;;;;;28.02;14.55;;;3.20;99.90;;;;;;5055955;28;20032;-76
2020/12/04 04:29:43;;;;;;;23.20;13.82;;;3.20;99.90;;;;;;5057088;28;20406;-78
2020/12/04 04:32:09;;;;;;;24.58;14.43;;;3.20;99.90;;;;;;5063922;28;20886;-77
2020/12/04 04:34:35;;;;;;;25.70;13.55;;;3.20;99.90;;;;;;5056513;28;20029;-78
2020/12/04 04:37:00;;;;;;;22.13;13.45;;;3.20;99.90;;;;;;5059231;28;20493;-77
2020/12/04 04:39:26;;;;;;;22.50;13.32;;;3.20;99.90;;;;;;5056928;28;20036;-77
2020/12/04 04:41:56;;;;;;;19.80;12.85;;;3.10;99.90;;;;;;5058204;28;20114;-77
2020/12/04 04:44:22;;;;;;;23.52;12.75;;;3.10;99.90;;;;;;5053820;28;20029;-76
2020/12/04 04:47:06;;;;;;;24.73;14.57;;;3.10;99.90;;;;;;5059177;28;20035;-78
2020/12/04 04:49:36;;;;;;;21.33;13.95;;;3.10;99.90;;;;;;5054822;28;20103;-77
2020/12/04 04:52:04;;;;;;;25.15;15.48;;;3.20;99.90;;;;;;5055867;28;20969;-79
2020/12/04 04:54:33;;;;;;;23.40;14.73;;;3.20;99.90;;;;;;5059026;28;20398;-77
2020/12/04 04:56:59;;;;;;;23.73;14.10;;;3.20;99.90;;;;;;5058022;28;20140;-78
2020/12/04 04:59:25;;;;;;;20.60;13.23;;;3.10;99.90;;;;;;5059734;28;20048;-78
2020/12/04 05:01:51;;;;;;;28.33;15.05;;;3.10;99.90;;;;;;5058586;28;20025;-78
2020/12/04 05:04:17;;;;;;;22.58;14.13;;;3.20;99.90;;;;;;5056931;28;20112;-77
2020/12/04 05:06:43;;;;;;;27.02;14.35;;;3.10;99.90;;;;;;5061963;28;20032;-77
2020/12/04 05:09:25;;;;;;;24.40;15.68;;;3.10;99.90;;;;;;5057484;28;20137;-78
2020/12/04 05:11:59;;;;;;;24.20;14.05;;;3.20;99.90;;;;;;5064872;28;20110;-78
2020/12/04 05:14:26;;;;;;;24.15;14.38;;;3.20;99.90;;;;;;5058280;28;20024;-77
2020/12/04 05:16:57;;;;;;;22.02;12.88;;;3.30;99.90;;;;;;5058250;28;20133;-77
2020/12/04 05:19:36;;;;;;;21.75;12.75;;;3.20;99.90;;;;;;5055420;28;20086;-78
2020/12/04 05:22:27;;;;;;;26.92;13.50;;;3.20;99.90;;;;;;5056498;28;20577;-77
2020/12/04 05:24:53;;;;;;;22.38;12.45;;;3.30;99.90;;;;;;5055729;28;20024;-77
2020/12/04 05:27:27;;;;;;;19.25;11.73;;;3.20;99.90;;;;;;5055692;28;20025;-78
2020/12/04 05:29:58;;;;;;;24.40;12.80;;;3.20;99.90;;;;;;5054497;28;20020;-77
2020/12/04 05:32:25;;;;;;;26.00;13.50;;;3.20;99.90;;;;;;5054303;28;20046;-78
2020/12/04 05:34:51;;;;;;;24.58;13.90;;;3.30;99.90;;;;;;5048851;28;20032;-78
2020/12/04 05:37:19;;;;;;;22.77;12.68;;;3.20;99.90;;;;;;5055203;28;20059;-77
2020/12/04 05:39:49;;;;;;;19.48;12.65;;;3.30;99.90;;;;;;5053134;28;20039;-77
2020/12/04 05:42:32;;;;;;;20.92;12.55;;;3.30;99.90;;;;;;5051331;28;20537;-77
2020/12/04 05:44:58;;;;;;;23.35;13.40;;;3.20;99.90;;;;;;5060177;28;20561;-77
2020/12/04 05:47:42;;;;;;;25.63;13.98;;;3.20;99.90;;;;;;5053256;28;20514;-77
2020/12/04 05:50:12;;;;;;;23.60;13.63;;;3.30;99.90;;;;;;5059107;28;20024;-77
2020/12/04 05:52:38;;;;;;;21.63;13.85;;;3.30;99.90;;;;;;5052820;28;20063;-77
2020/12/04 05:55:06;;;;;;;26.67;15.38;;;3.30;99.90;;;;;;5061458;28;20029;-77
2020/12/04 05:57:43;;;;;;;22.80;14.15;;;3.30;99.90;;;;;;5050596;28;20491;-77
2020/12/04 06:00:08;;;;;;;25.10;13.70;;;3.30;99.90;;;;;;5056450;28;20579;-77
2020/12/04 06:02:34;;;;;;;20.38;12.55;;;3.20;99.90;;;;;;5057052;28;20111;-77
2020/12/04 06:05:00;;;;;;;24.88;14.68;;;3.20;99.90;;;;;;5056945;28;20056;-77
2020/12/04 06:07:28;;;;;;;25.27;14.50;;;3.10;99.90;;;;;;5056357;28;20726;-78
2020/12/04 06:09:57;;;;;;;24.67;15.60;;;3.10;99.90;;;;;;5057734;28;20103;-77
2020/12/04 06:12:24;;;;;;;26.15;14.10;;;3.10;99.90;;;;;;5055967;28;20084;-77
2020/12/04 06:14:51;;;;;;;22.17;12.95;;;3.00;99.90;;;;;;5056521;28;20614;-77
2020/12/04 06:17:17;;;;;;;23.92;14.93;;;3.00;99.90;;;;;;5057506;28;20047;-79
2020/12/04 06:19:44;;;;;;;25.13;14.30;;;3.00;99.90;;;;;;5053835;28;20040;-77
2020/12/04 06:22:14;;;;;;;24.55;13.98;;;3.10;99.90;;;;;;5054727;28;20071;-77
2020/12/04 06:24:55;;;;;;;22.80;14.05;;;3.10;99.90;;;;;;5058637;28;20033;-78
2020/12/04 06:27:40;;;;;;;23.30;12.93;;;3.20;99.90;;;;;;5067532;28;20067;-80
2020/12/04 06:30:07;;;;;;;;;;;3.10;99.90;;;;;;5060829;28;20028;-80
2020/12/04 06:32:44;;;;;;;23.80;14.63;;;3.10;99.90;;;;;;5055556;28;19919;-78
2020/12/04 06:35:11;;;;;;;24.58;13.60;;;3.10;99.90;;;;;;5058402;28;20112;-78
2020/12/04 06:37:45;;;;;;;26.50;14.88;;;3.10;99.90;;;;;;5050868;28;20035;-79
2020/12/04 06:40:27;;;;;;;23.48;14.05;;;3.30;99.90;;;;;;5052402;28;20105;-79
2020/12/04 06:42:57;;;;;;;23.95;13.70;;;3.30;99.90;;;;;;5067011;28;20032;-81
2020/12/04 06:45:23;;;;;;;22.73;13.65;;;3.30;99.90;;;;;;5067003;28;20036;-80
2020/12/04 06:48:14;;;;;;;21.90;13.15;;;3.20;99.90;;;;;;5066358;28;20691;-79
2020/12/04 06:50:45;;;;;;;21.77;12.88;;;3.20;99.90;;;;;;5066010;28;20031;-83
2020/12/04 06:53:13;;;;;;;21.20;12.48;;;3.00;99.90;;;;;;5066857;28;20024;-80
2020/12/04 06:55:39;;;;;;;22.27;13.73;;;3.00;99.90;;;;;;5066261;28;20072;-80
2020/12/04 06:58:06;;;;;;;26.08;13.70;;;3.10;99.90;;;;;;5066584;28;20646;-80
2020/12/04 07:00:32;;;;;;;24.40;12.85;;;3.10;99.90;;;;;;5065842;28;20043;-80
2020/12/04 07:03:00;;;;;;;23.75;14.15;;;3.10;99.90;;;;;;5066075;28;20127;-82
2020/12/04 07:05:27;;;;;;;26.65;14.00;;;3.10;99.90;;;;;;5074239;28;20525;-79
2020/12/04 07:08:07;;;;;;;24.38;14.10;;;3.20;99.90;;;;;;5068620;28;20494;-83
2020/12/04 07:10:34;;;;;;;26.40;15.13;;;3.20;99.90;;;;;;5068261;28;20078;-80
2020/12/04 07:13:03;;;;;;;21.50;13.35;;;3.10;99.90;;;;;;5068319;28;20031;-79
2020/12/04 07:15:31;;;;;;;21.65;11.50;;;3.10;99.90;;;;;;5067903;28;20604;-80
2020/12/04 07:17:57;;;;;;;19.92;12.45;;;3.10;99.90;;;;;;5066711;28;20033;-79
2020/12/04 07:20:36;;;;;;;22.83;13.60;;;3.00;99.90;;;;;;5068871;28;20068;-80
2020/12/04 07:23:06;;;;;;;22.80;12.93;;;3.10;99.90;;;;;;5067772;28;20028;-80
2020/12/04 07:25:32;;;;;;;26.20;15.52;;;3.10;99.90;;;;;;5067634;28;20083;-79
2020/12/04 07:27:58;;;;;;;27.77;14.55;;;3.10;99.90;;;;;;5067797;28;20021;-80
2020/12/04 07:30:25;;;;;;;21.27;12.93;;;3.10;99.90;;;;;;5067747;28;20478;-78
2020/12/04 07:32:54;;;;;;;22.30;14.07;;;3.10;99.90;;;;;;5068146;28;20028;-78
2020/12/04 07:35:21;;;;;;;20.77;12.75;;;3.10;99.90;;;;;;5049842;28;20045;-81
2020/12/04 07:37:47;;;;;;;23.58;13.98;;;3.20;99.90;;;;;;5048885;28;20624;-86
2020/12/04 07:40:15;;;;;;;24.98;15.32;;;3.20;99.90;;;;;;5066651;28;20108;-79
2020/12/04 07:42:41;;;;;;;26.63;14.18;;;3.10;99.90;;;;;;5067289;28;20107;-80
2020/12/04 07:45:06;;;;;;;26.50;16.17;;;2.90;99.90;;;;;;5066222;28;20573;-79
2020/12/04 07:47:32;;;;;;;25.23;15.23;;;2.90;99.90;;;;;;5067556;28;20107;-82
2020/12/04 07:50:03;;;;;;;24.17;14.60;;;3.00;99.90;;;;;;5067011;28;20104;-80
2020/12/04 07:52:35;;;;;;;26.17;16.02;;;3.10;99.90;;;;;;5067618;28;20031;-79
2020/12/04 07:55:07;;;;;;;25.77;14.55;;;3.10;99.90;;;;;;5067859;28;20020;-80
2020/12/04 07:57:54;;;;;;;23.38;14.18;;;3.10;99.90;;;;;;5067685;28;20040;-80
2020/12/04 08:00:20;;;;;;;26.23;15.48;;;3.10;99.90;;;;;;5067011;28;20037;-80
2020/12/04 08:02:46;;;;;;;24.02;13.93;;;3.20;99.90;;;;;;5066895;28;20033;-81
2020/12/04 08:05:21;;;;;;;29.00;16.27;;;3.20;99.90;;;;;;5067982;28;20020;-79
2020/12/04 08:07:52;;;;;;;25.13;15.02;;;3.20;99.90;;;;;;5064988;28;20031;-77
2020/12/04 08:10:19;;;;;;;27.65;14.63;;;3.10;99.90;;;;;;5065410;28;20035;-79
2020/12/04 08:12:47;;;;;;;24.15;15.18;;;3.10;99.90;;;;;;5064141;28;20032;-79
2020/12/04 08:15:13;;;;;;;23.75;13.80;;;3.10;99.90;;;;;;5064244;28;20134;-79
2020/12/04 08:17:41;;;;;;;27.60;15.20;;;3.10;99.90;;;;;;5064616;28;20021;-78
2020/12/04 08:20:17;;;;;;;25.42;15.02;;;3.20;99.90;;;;;;5053636;28;20032;-79
2020/12/04 08:22:49;;;;;;;26.08;14.85;;;3.30;99.90;;;;;;5060846;28;20347;-78
2020/12/04 08:25:23;;;;;;;27.45;15.23;;;3.30;99.90;;;;;;5052374;28;20039;-79
2020/12/04 08:27:49;;;;;;;23.50;14.30;;;3.30;99.90;;;;;;5044524;28;20025;-79
2020/12/04 08:30:20;;;;;;;22.63;14.55;;;3.30;99.90;;;;;;5045021;28;20494;-79
2020/12/04 08:32:53;;;;;;;24.92;15.30;;;3.30;99.90;;;;;;5049409;28;20028;-79
2020/12/04 08:35:24;;;;;;;26.75;15.82;;;3.30;99.90;;;;;;5064341;28;20074;-79
2020/12/04 08:37:51;;;;;;;25.33;15.38;;;3.20;99.90;;;;;;5056725;28;20039;-80
2020/12/04 08:40:30;;;;;;;28.42;16.02;;;3.30;99.90;;;;;;5065448;28;20044;-83
2020/12/04 08:43:17;;;;;;;31.55;17.30;;;3.20;99.90;;;;;;5065465;28;20031;-81
2020/12/04 08:45:45;;;;;;;33.83;17.90;;;3.10;99.90;;;;;;5068558;28;20035;-79
2020/12/04 08:48:22;;;;;;;38.67;23.58;;;3.10;99.90;;;;;;5070962;28;20025;-79
2020/12/04 08:50:53;;;;;;;30.85;20.00;;;3.20;99.90;;;;;;5069732;28;20123;-77
2020/12/04 08:53:21;;;;;;;29.65;19.58;;;3.10;99.90;;;;;;5068260;28;20482;-77
2020/12/04 08:55:53;;;;;;;25.95;16.65;;;3.20;99.90;;;;;;5064831;28;20061;-77
2020/12/04 08:58:21;;;;;;;29.27;17.95;;;3.20;99.90;;;;;;5047333;28;20029;-75
2020/12/04 09:00:48;;;;;;;29.00;17.85;;;3.30;99.90;;;;;;5046636;28;20033;-73
2020/12/04 09:03:16;;;;;;;32.38;17.95;;;3.50;99.90;;;;;;5046852;28;20051;-74
2020/12/04 09:05:42;;;;;;;34.40;18.02;;;3.50;99.90;;;;;;5065117;28;20037;-73
2020/12/04 09:08:08;;;;;;;27.35;18.60;;;3.50;99.90;;;;;;5067149;28;20035;-74
2020/12/04 09:10:35;;;;;;;46.83;27.90;;;3.60;99.90;;;;;;5049443;28;20328;-73
2020/12/04 09:13:01;;;;;;;37.78;20.75;;;3.50;99.90;;;;;;5046203;28;20036;-73
2020/12/04 09:15:29;;;;;;;28.63;18.20;;;3.50;99.90;;;;;;5051708;28;20636;-74
2020/12/04 09:17:55;;;;;;;28.10;17.88;;;3.50;99.90;;;;;;5066669;28;20029;-74
2020/12/04 09:20:21;;;;;;;29.92;18.83;;;3.50;99.90;;;;;;5066695;28;20028;-73
2020/12/04 09:22:46;;;;;;;27.95;17.15;;;3.50;99.90;;;;;;5066273;28;20036;-73
2020/12/04 09:25:14;;;;;;;29.38;16.50;;;3.40;99.90;;;;;;5065546;28;20471;-72
2020/12/04 09:27:41;;;;;;;31.95;18.73;;;3.50;99.90;;;;;;5059989;28;20494;-73
2020/12/04 09:30:08;;;;;;;28.88;18.83;;;3.50;99.90;;;;;;5066562;28;20029;-73
2020/12/04 09:32:34;;;;;;;30.40;20.10;;;3.50;99.90;;;;;;5066188;28;20032;-73
2020/12/04 09:35:00;;;;;;;32.72;19.88;;;3.60;99.90;;;;;;5057828;28;20021;-72
2020/12/04 09:37:30;;;;;;;30.23;19.00;;;3.80;99.90;;;;;;5061560;28;20024;-72
2020/12/04 09:39:58;;;;;;;33.22;18.17;;;3.80;99.90;;;;;;5063698;28;20061;-73
2020/12/04 09:42:26;;;;;;;28.45;18.00;;;3.70;99.90;;;;;;5064115;28;20024;-72
2020/12/04 09:44:53;;;;;;;32.65;19.80;;;3.70;99.90;;;;;;5063923;28;20125;-72
2020/12/04 09:47:19;;;;;;;30.75;19.48;;;3.70;99.90;;;;;;5062724;28;20581;-73
2020/12/04 09:49:46;;;;;;;31.08;19.20;;;3.80;99.90;;;;;;5064081;28;20664;-72
2020/12/04 09:52:13;;;;;;;32.80;20.35;;;3.80;99.90;;;;;;5064159;28;20032;-72
2020/12/04 09:54:41;;;;;;;38.35;23.20;;;3.70;99.90;;;;;;5064851;28;20025;-72
2020/12/04 09:57:10;;;;;;;45.42;25.15;;;3.70;99.90;;;;;;5064427;28;20067;-72
2020/12/04 09:59:36;;;;;;;39.60;21.85;;;3.60;99.90;;;;;;5065792;28;20060;-72
2020/12/04 10:02:04;;;;;;;36.50;21.67;;;3.60;99.90;;;;;;5065810;28;20048;-71
2020/12/04 10:04:30;;;;;;;34.60;21.75;;;3.60;99.90;;;;;;5065013;28;20035;-71
2020/12/04 10:06:56;;;;;;;34.88;20.92;;;3.60;99.90;;;;;;5066166;28;20036;-71
2020/12/04 10:09:23;;;;;;;36.10;21.02;;;3.60;99.90;;;;;;5064304;28;20020;-71
2020/12/04 10:11:50;;;;;;;34.08;20.30;;;3.60;99.90;;;;;;5065098;28;20021;-72
2020/12/04 10:14:16;;;;;;;37.72;21.55;;;3.70;99.90;;;;;;5065044;28;20032;-72
2020/12/04 10:16:44;;;;;;;40.58;22.48;;;3.70;99.90;;;;;;5065196;28;20375;-72
2020/12/04 10:19:12;;;;;;;32.50;21.30;;;3.60;99.90;;;;;;5065002;28;20131;-72
2020/12/04 10:21:38;;;;;;;39.08;22.23;;;3.70;99.90;;;;;;5064957;28;20020;-72
2020/12/04 10:24:06;;;;;;;38.47;21.80;;;3.70;99.90;;;;;;5065060;28;20031;-72
2020/12/04 10:26:40;;;;;;;35.58;21.80;;;3.80;99.90;;;;;;5064744;28;20039;-72
2020/12/04 10:29:06;;;;;;;36.10;22.52;;;3.70;99.90;;;;;;5065363;28;20035;-72
2020/12/04 10:31:33;;;;;;;36.22;21.85;;;3.60;99.90;;;;;;5062308;28;20068;-72
2020/12/04 10:33:58;;;;;;;38.92;23.10;;;3.70;99.90;;;;;;5062519;28;20074;-72
2020/12/04 10:36:26;;;;;;;37.95;21.80;;;3.80;99.90;;;;;;5064864;28;20032;-72
2020/12/04 10:38:53;;;;;;;41.95;23.73;;;3.90;99.90;;;;;;5064762;28;20074;-72
2020/12/04 10:41:18;;;;;;;37.78;24.00;;;3.80;99.90;;;;;;5064641;28;20085;-72
2020/12/04 10:43:44;;;;;;;37.85;22.85;;;3.80;99.90;;;;;;5064488;28;20029;-72
2020/12/04 10:46:10;;;;;;;34.10;20.95;;;3.70;99.90;;;;;;5064214;28;20040;-73
2020/12/04 10:48:35;;;;;;;37.60;21.98;;;3.80;99.90;;;;;;5064712;28;20486;-72
2020/12/04 10:51:01;;;;;;;35.03;22.33;;;3.90;99.90;;;;;;5064726;28;20063;-72
2020/12/04 10:53:29;;;;;;;35.53;21.58;;;3.80;99.90;;;;;;5063978;28;20028;-72
2020/12/04 10:55:55;;;;;;;41.92;25.17;;;3.80;99.90;;;;;;5064467;28;20437;-72
2020/12/04 10:58:20;;;;;;;44.08;24.80;;;3.80;99.90;;;;;;5064658;28;20024;-72
2020/12/04 11:00:50;;;;;;;38.50;24.75;;;3.90;99.90;;;;;;5064315;28;20036;-72
2020/12/04 11:03:32;;;;;;;35.78;21.85;;;4.00;99.90;;;;;;5063822;28;20107;-72
2020/12/04 11:05:58;;;;;;;36.80;23.50;;;3.90;99.90;;;;;;5064417;28;20017;-72
2020/12/04 11:08:23;;;;;;;34.75;21.15;;;4.00;99.90;;;;;;5063908;28;20036;-72
2020/12/04 11:10:49;;;;;;;38.72;25.75;;;4.10;99.90;;;;;;5064901;28;20024;-72
2020/12/04 11:13:15;;;;;;;47.58;28.38;;;4.20;99.90;;;;;;5063991;28;20588;-72
2020/12/04 11:15:41;;;;;;;41.53;25.40;;;4.20;99.90;;;;;;5064126;28;20054;-72
2020/12/04 11:18:07;;;;;;;39.83;24.85;;;4.10;99.90;;;;;;5064026;28;20036;-72
2020/12/04 11:20:33;;;;;;;40.05;25.40;;;4.10;99.90;;;;;;5054142;28;20037;-72
2020/12/04 11:22:59;;;;;;;40.17;25.92;;;4.10;99.90;;;;;;5063433;28;20036;-72
2020/12/04 11:25:25;;;;;;;45.45;25.02;;;4.10;99.90;;;;;;5064301;28;20033;-72
2020/12/04 11:27:52;;;;;;;40.35;23.77;;;4.10;99.90;;;;;;5064450;28;20028;-72
2020/12/04 11:30:19;;;;;;;38.47;23.85;;;4.00;99.90;;;;;;5064154;28;20174;-72
2020/12/04 11:32:46;;;;;;;47.30;28.98;;;4.00;99.90;;;;;;5063366;28;20039;-72
2020/12/04 11:35:13;;;;;;;41.42;24.98;;;4.10;99.90;;;;;;5062290;28;20029;-72
2020/12/04 11:37:41;;;;;;;37.90;23.55;;;4.00;99.90;;;;;;5063657;28;20028;-72
2020/12/04 11:40:09;;;;;;;47.42;27.17;;;4.10;99.90;;;;;;5063176;28;20076;-72
2020/12/04 11:42:38;;;;;;;40.40;25.80;;;4.10;99.90;;;;;;5063316;28;20109;-72
2020/12/04 11:45:05;;;;;;;45.03;24.88;;;4.00;99.90;;;;;;5063993;28;20028;-72
2020/12/04 11:47:31;;;;;;;46.92;26.85;;;4.00;99.90;;;;;;5064139;28;20028;-72
2020/12/04 11:49:57;;;;;;;45.55;29.08;;;4.00;99.90;;;;;;5064181;28;20040;-71
2020/12/04 11:52:22;;;;;;;49.03;27.05;;;4.00;99.90;;;;;;5063479;28;20181;-72
2020/12/04 11:54:48;;;;;;;48.25;26.58;;;4.10;99.90;;;;;;5063608;28;20039;-72
2020/12/04 11:57:14;;;;;;;48.60;28.27;;;4.10;99.90;;;;;;5063683;28;20052;-72
2020/12/04 11:59:40;;;;;;;42.58;25.42;;;4.00;99.90;;;;;;5063794;28;20043;-72
2020/12/04 12:02:06;;;;;;;46.03;27.83;;;3.90;99.90;;;;;;5063990;28;20024;-72
2020/12/04 12:04:32;;;;;;;58.63;30.23;;;4.00;99.90;;;;;;5062472;28;20098;-72
2020/12/04 12:06:58;;;;;;;42.65;27.92;;;4.00;99.90;;;;;;5062091;28;20052;-72
2020/12/04 12:09:24;;;;;;;49.20;29.05;;;4.00;99.90;;;;;;5063834;28;20451;-72
2020/12/04 12:11:50;;;;;;;65.05;30.92;;;3.90;99.90;;;;;;5063686;28;20073;-72
2020/12/04 12:14:16;;;;;;;40.28;25.67;;;3.90;99.90;;;;;;5063602;28;20021;-72
2020/12/04 12:16:48;;;;;;;42.22;25.33;;;3.80;99.90;;;;;;5063449;28;20021;-72
2020/12/04 12:19:15;;;;;;;35.33;22.80;;;3.70;99.90;;;;;;5063251;28;20033;-72
2020/12/04 12:21:43;;;;;;;36.33;23.60;;;3.70;99.90;;;;;;5066719;28;20035;-72
2020/12/04 12:24:10;;;;;;;45.60;27.55;;;3.60;99.90;;;;;;5067199;28;20031;-72
2020/12/04 12:26:36;;;;;;;48.60;28.38;;;3.70;99.90;;;;;;5054357;28;20535;-73
2020/12/04 12:29:03;;;;;;;41.97;24.80;;;3.70;99.90;;;;;;5067400;28;20032;-72
2020/12/04 12:31:29;;;;;;;38.35;24.45;;;3.70;99.90;;;;;;5067157;28;20025;-72
2020/12/04 12:33:55;;;;;;;34.67;21.92;;;3.80;99.90;;;;;;5067229;28;20020;-72
2020/12/04 12:36:21;;;;;;;41.20;23.02;;;3.80;99.90;;;;;;5067025;28;20025;-72
2020/12/04 12:38:47;;;;;;;35.67;21.63;;;3.70;99.90;;;;;;5066485;28;20484;-72
2020/12/04 12:41:13;;;;;;;35.83;21.05;;;3.70;99.90;;;;;;5066804;28;20478;-72